createdAt,value
2019-01-15T00:01:57.518Z,2.77
2019-01-15T00:04:01.314Z,2.30
2019-01-15T00:06:05.604Z,2.67
2019-01-15T00:08:09.583Z,2.00
2019-01-15T00:10:13.546Z,3.30
2019-01-15T00:12:17.346Z,1.77
2019-01-15T00:14:21.271Z,2.67
2019-01-15T00:16:25.168Z,2.90
2019-01-15T00:18:29.286Z,2.07
2019-01-15T00:20:33.402Z,2.53
2019-01-15T00:22:37.280Z,3.63
2019-01-15T00:24:41.058Z,2.80
2019-01-15T00:26:44.935Z,2.23
2019-01-15T00:28:48.997Z,2.07
2019-01-15T00:30:52.780Z,2.40
2019-01-15T00:32:56.587Z,2.37
2019-01-15T00:35:00.457Z,2.40
2019-01-15T00:37:04.403Z,2.00
2019-01-15T00:39:08.573Z,2.20
2019-01-15T00:41:12.427Z,2.67
2019-01-15T00:43:16.494Z,2.80
2019-01-15T00:45:20.275Z,3.03
2019-01-15T00:47:24.051Z,2.17
2019-01-15T00:49:28.187Z,2.47
2019-01-15T00:51:32.234Z,1.90
2019-01-15T00:53:36.035Z,3.10
2019-01-15T00:55:39.847Z,2.67
2019-01-15T00:57:43.718Z,2.63
2019-01-15T00:59:47.506Z,2.30
2019-01-15T01:01:51.462Z,2.40
2019-01-15T01:03:55.530Z,2.33
2019-01-15T01:05:59.458Z,3.57
2019-01-15T01:08:03.979Z,2.33
2019-01-15T01:10:09.182Z,3.10
2019-01-15T01:12:12.971Z,2.40
2019-01-15T01:14:17.172Z,3.20
2019-01-15T01:16:20.972Z,2.73
2019-01-15T01:18:24.898Z,2.20
2019-01-15T01:20:28.687Z,2.43
2019-01-15T01:22:32.619Z,2.90
2019-01-15T01:24:36.431Z,2.67
2019-01-15T01:26:40.311Z,2.40
2019-01-15T01:28:44.083Z,2.60
2019-01-15T01:30:47.982Z,2.30
2019-01-15T01:32:51.981Z,3.10
2019-01-15T01:34:55.784Z,3.20
2019-01-15T01:36:59.698Z,3.60
2019-01-15T01:39:05.127Z,5.00
2019-01-15T01:41:08.990Z,3.50
2019-01-15T01:43:12.938Z,4.70
2019-01-15T01:45:17.523Z,4.23
2019-01-15T01:47:21.317Z,4.17
2019-01-15T01:49:25.106Z,3.10
2019-01-15T01:51:29.048Z,3.50
2019-01-15T01:53:32.906Z,3.70
2019-01-15T01:55:36.703Z,3.60
2019-01-15T01:57:40.523Z,3.50
2019-01-15T01:59:44.571Z,3.63
2019-01-15T02:01:48.531Z,3.67
2019-01-15T02:03:52.227Z,4.33
2019-01-15T02:05:55.938Z,3.70
2019-01-15T02:07:59.864Z,2.90
2019-01-15T02:10:03.722Z,4.33
2019-01-15T02:12:07.414Z,4.47
2019-01-15T02:14:11.459Z,4.07
2019-01-15T02:16:15.176Z,3.70
2019-01-15T02:18:18.864Z,3.60
2019-01-15T02:20:22.728Z,4.57
2019-01-15T02:22:26.430Z,4.50
2019-01-15T02:24:30.511Z,4.20
2019-01-15T02:26:34.257Z,4.53
2019-01-15T02:28:37.971Z,5.70
2019-01-15T02:30:41.739Z,6.10
2019-01-15T02:32:45.813Z,4.00
2019-01-15T02:34:49.499Z,4.83
2019-01-15T02:36:53.315Z,4.70
2019-01-15T02:38:57.012Z,5.83
2019-01-15T02:41:00.972Z,6.03
2019-01-15T02:43:05.301Z,5.60
2019-01-15T02:45:10.865Z,4.67
2019-01-15T02:47:14.651Z,4.50
2019-01-15T02:49:18.412Z,4.90
2019-01-15T02:51:22.119Z,4.50
2019-01-15T02:53:25.823Z,4.97
2019-01-15T02:55:29.773Z,4.10
2019-01-15T02:57:33.470Z,5.40
2019-01-15T02:59:37.167Z,5.97
2019-01-15T03:01:40.867Z,5.50
2019-01-15T03:03:44.564Z,5.23
2019-01-15T03:05:48.275Z,4.80
2019-01-15T03:07:52.143Z,5.87
2019-01-15T03:09:56.111Z,5.87
2019-01-15T03:11:59.803Z,4.10
2019-01-15T03:14:03.515Z,4.60
2019-01-15T03:16:07.352Z,4.40
2019-01-15T03:18:11.056Z,5.30
2019-01-15T03:20:15.451Z,4.43
2019-01-15T03:22:19.143Z,4.80
2019-01-15T03:24:22.862Z,3.90
2019-01-15T03:26:26.564Z,4.77
2019-01-15T03:28:30.268Z,6.33
2019-01-15T03:30:34.207Z,4.00
2019-01-15T03:32:38.158Z,4.50
2019-01-15T03:34:42.339Z,4.60
2019-01-15T03:36:46.276Z,3.90
2019-01-15T03:38:50.453Z,4.70
2019-01-15T03:40:54.152Z,4.80
2019-01-15T03:43:03.561Z,3.80
2019-01-15T03:45:05.114Z,4.83
2019-01-15T03:47:08.934Z,4.00
2019-01-15T03:49:13.120Z,4.17
2019-01-15T03:51:17.104Z,3.97
2019-01-15T03:53:20.859Z,4.47
2019-01-15T03:55:24.734Z,4.67
2019-01-15T03:57:28.519Z,3.63
2019-01-15T03:59:32.223Z,3.83
2019-01-15T04:01:36.342Z,3.80
2019-01-15T04:03:40.146Z,4.23
2019-01-15T04:05:44.016Z,3.70
2019-01-15T04:07:49.581Z,4.40
2019-01-15T04:09:53.472Z,4.20
2019-01-15T04:11:57.274Z,3.90
2019-01-15T04:14:01.174Z,4.00
2019-01-15T04:16:05.051Z,4.73
2019-01-15T04:18:09.265Z,3.97
2019-01-15T04:20:14.053Z,4.53
2019-01-15T04:22:17.848Z,5.03
2019-01-15T04:24:21.799Z,4.77
2019-01-15T04:26:25.597Z,6.20
2019-01-15T04:28:29.696Z,4.60
2019-01-15T04:30:33.628Z,6.33
2019-01-15T04:32:37.746Z,4.73
2019-01-15T04:34:41.663Z,4.63
2019-01-15T04:36:45.786Z,6.43
2019-01-15T04:38:49.575Z,5.73
2019-01-15T04:40:53.707Z,5.00
2019-01-15T04:42:57.579Z,4.97
2019-01-15T04:45:01.456Z,8.00
2019-01-15T04:47:05.390Z,5.80
2019-01-15T04:49:09.256Z,5.20
2019-01-15T04:51:13.327Z,5.47
2019-01-15T04:53:17.148Z,5.73
2019-01-15T04:55:21.378Z,5.90
2019-01-15T04:57:25.256Z,5.13
2019-01-15T04:59:29.758Z,5.70
2019-01-15T05:01:33.644Z,6.17
2019-01-15T05:03:37.699Z,5.10
2019-01-15T05:05:41.550Z,5.67
2019-01-15T05:07:45.555Z,6.30
2019-01-15T05:09:49.475Z,5.43
2019-01-15T05:11:54.014Z,5.10
2019-01-15T05:13:57.891Z,5.70
2019-01-15T05:16:01.848Z,5.23
2019-01-15T05:18:05.854Z,5.60
2019-01-15T05:20:11.372Z,6.30
2019-01-15T05:22:15.362Z,5.80
2019-01-15T05:24:20.315Z,5.73
2019-01-15T05:26:24.228Z,5.60
2019-01-15T05:28:28.234Z,6.47
2019-01-15T05:30:32.108Z,6.40
2019-01-15T05:32:36.062Z,7.07
2019-01-15T05:34:39.917Z,5.90
2019-01-15T05:36:43.781Z,5.70
2019-01-15T05:38:47.787Z,6.30
2019-01-15T05:40:51.690Z,5.67
2019-01-15T05:42:55.654Z,6.60
2019-01-15T05:45:00.095Z,7.83
2019-01-15T05:47:05.037Z,7.40
2019-01-15T05:49:08.988Z,5.60
2019-01-15T05:51:32.300Z,6.87
2019-01-15T05:53:36.247Z,6.47
2019-01-15T05:55:39.668Z,7.20
2019-01-15T05:57:43.864Z,6.47
2019-01-15T05:59:48.039Z,8.33
2019-01-15T06:01:55.044Z,6.83
2019-01-15T06:03:59.139Z,7.00
2019-01-15T06:06:10.622Z,9.17
2019-01-15T06:08:14.563Z,7.67
2019-01-15T06:10:18.471Z,7.53
2019-01-15T06:12:22.254Z,8.83
2019-01-15T06:14:26.203Z,8.97
2019-01-15T06:16:30.448Z,8.93
2019-01-15T06:18:34.354Z,9.33
2019-01-15T06:20:38.322Z,10.50
2019-01-15T06:22:42.370Z,10.70
2019-01-15T06:24:46.327Z,12.00
2019-01-15T06:26:50.221Z,12.53
2019-01-15T06:28:54.901Z,13.07
2019-01-15T06:30:58.979Z,12.67
2019-01-15T06:33:02.962Z,13.33
2019-01-15T06:35:07.271Z,13.43
2019-01-15T06:37:11.135Z,14.83
2019-01-15T06:39:15.171Z,14.90
2019-01-15T06:41:19.094Z,14.63
2019-01-15T06:43:23.035Z,14.23
2019-01-15T06:45:26.947Z,17.33
2019-01-15T06:47:30.878Z,16.20
2019-01-15T06:49:34.992Z,16.47
2019-01-15T06:51:39.207Z,18.97
2019-01-15T06:53:42.987Z,17.97
2019-01-15T06:55:46.854Z,17.60
2019-01-15T06:57:50.790Z,18.83
2019-01-15T06:59:55.044Z,16.60
2019-01-15T07:01:59.007Z,19.10
2019-01-15T07:04:02.874Z,19.53
2019-01-15T07:06:06.820Z,20.47
2019-01-15T07:08:10.777Z,18.57
2019-01-15T07:10:17.690Z,21.00
2019-01-15T07:12:21.549Z,20.37
2019-01-15T07:14:25.646Z,22.50
2019-01-15T07:16:29.714Z,21.10
2019-01-15T07:18:33.574Z,20.30
2019-01-15T07:20:36.890Z,22.60
2019-01-15T07:22:40.782Z,23.60
2019-01-15T07:24:44.644Z,22.43
2019-01-15T07:26:48.562Z,23.67
2019-01-15T07:28:52.430Z,22.53
2019-01-15T07:31:00.177Z,24.93
2019-01-15T07:33:04.378Z,25.70
2019-01-15T07:35:08.808Z,26.37
2019-01-15T07:37:12.670Z,25.77
2019-01-15T07:39:16.736Z,26.03
2019-01-15T07:41:20.513Z,26.37
2019-01-15T07:43:23.833Z,25.47
2019-01-15T07:45:27.687Z,26.13
2019-01-15T07:47:31.769Z,25.93
2019-01-15T07:49:35.874Z,26.97
2019-01-15T07:51:39.726Z,27.07
2019-01-15T07:53:43.874Z,27.43
2019-01-15T07:55:47.806Z,28.83
2019-01-15T07:57:51.741Z,27.10
2019-01-15T07:59:55.535Z,26.87
2019-01-15T08:01:59.564Z,26.27
2019-01-15T08:04:03.687Z,27.07
2019-01-15T08:06:07.010Z,29.93
2019-01-15T08:08:10.964Z,24.60
2019-01-15T08:10:15.594Z,29.37
2019-01-15T08:12:20.660Z,27.50
2019-01-15T08:14:24.535Z,29.37
2019-01-15T08:16:28.803Z,26.07
2019-01-15T08:18:32.818Z,26.77
2019-01-15T08:20:36.687Z,27.67
2019-01-15T08:22:40.874Z,27.73
2019-01-15T08:24:44.735Z,26.17
2019-01-15T08:26:48.517Z,29.00
2019-01-15T08:28:52.372Z,26.40
2019-01-15T08:30:56.158Z,25.33
2019-01-15T08:33:00.106Z,28.27
2019-01-15T08:35:04.318Z,25.30
2019-01-15T08:37:08.179Z,26.10
2019-01-15T08:39:11.949Z,25.03
2019-01-15T08:41:15.734Z,23.90
2019-01-15T08:43:19.532Z,25.00
2019-01-15T08:45:23.400Z,25.37
2019-01-15T08:47:28.823Z,24.00
2019-01-15T08:49:32.858Z,24.73
2019-01-15T08:51:37.007Z,23.50
2019-01-15T08:53:41.260Z,25.70
2019-01-15T08:55:45.383Z,25.27
2019-01-15T08:57:49.415Z,24.47
2019-01-15T08:59:53.444Z,24.83
2019-01-15T09:01:57.374Z,25.60
2019-01-15T09:04:01.160Z,24.80
2019-01-15T09:06:05.613Z,23.70
2019-01-15T09:08:09.475Z,23.13
2019-01-15T09:10:14.398Z,24.67
2019-01-15T09:12:18.266Z,23.87
2019-01-15T09:14:26.735Z,24.17
2019-01-15T09:16:27.706Z,23.47
2019-01-15T09:18:31.630Z,24.67
2019-01-15T09:20:36.051Z,23.97
2019-01-15T09:22:40.262Z,26.87
2019-01-15T09:24:44.443Z,24.90
2019-01-15T09:26:47.834Z,23.33
2019-01-15T09:28:51.786Z,20.60
2019-01-15T09:30:55.775Z,21.00
2019-01-15T09:32:59.609Z,21.20
2019-01-15T09:35:03.471Z,21.83
2019-01-15T09:37:09.123Z,19.70
2019-01-15T09:39:13.050Z,19.23
2019-01-15T09:41:16.818Z,20.80
2019-01-15T09:43:20.610Z,16.27
2019-01-15T09:45:25.010Z,18.50
2019-01-15T09:47:28.955Z,18.93
2019-01-15T09:49:32.818Z,19.30
2019-01-15T09:51:36.864Z,18.90
2019-01-15T09:53:40.974Z,17.27
2019-01-15T09:55:44.839Z,18.23
2019-01-15T09:57:48.634Z,17.37
2019-01-15T09:59:52.733Z,17.50
2019-01-15T10:01:56.922Z,17.00
2019-01-15T10:04:00.966Z,17.77
2019-01-15T10:06:04.978Z,15.60
2019-01-15T10:08:08.902Z,18.20
2019-01-15T10:10:12.983Z,16.30
2019-01-15T10:12:16.838Z,17.40
2019-01-15T10:14:20.882Z,17.10
2019-01-15T10:16:24.666Z,14.83
2019-01-15T10:18:28.810Z,15.97
2019-01-15T10:20:32.667Z,14.10
2019-01-15T10:22:36.770Z,15.00
2019-01-15T10:24:41.018Z,15.43
2019-01-15T10:26:44.871Z,14.47
2019-01-15T10:28:48.687Z,15.93
2019-01-15T10:31:36.770Z,14.27
2019-01-15T10:33:45.345Z,12.17
2019-01-15T10:35:58.464Z,13.10
2019-01-15T10:38:02.314Z,13.00
2019-01-15T10:40:06.563Z,14.10
2019-01-15T10:42:10.422Z,13.53
2019-01-15T10:44:14.366Z,12.70
2019-01-15T10:46:21.372Z,11.80
2019-01-15T10:48:24.135Z,11.93
2019-01-15T10:50:28.330Z,13.57
2019-01-15T10:52:32.262Z,12.67
2019-01-15T10:54:36.045Z,12.90
2019-01-15T10:56:39.905Z,10.43
2019-01-15T10:58:44.087Z,11.47
2019-01-15T11:00:48.026Z,9.00
2019-01-15T11:02:51.884Z,10.23
2019-01-15T11:04:56.593Z,10.30
2019-01-15T11:07:00.698Z,9.67
2019-01-15T11:09:07.834Z,9.43
2019-01-15T11:11:11.700Z,9.37
2019-01-15T11:13:15.565Z,8.23
2019-01-15T11:15:19.359Z,8.57
2019-01-15T11:17:23.225Z,9.20
2019-01-15T11:19:27.223Z,9.00
2019-01-15T11:21:31.167Z,8.27
2019-01-15T11:23:35.106Z,10.60
2019-01-15T11:25:38.513Z,9.90
2019-01-15T11:27:41.907Z,8.97
2019-01-15T11:29:45.691Z,9.53
2019-01-15T11:31:49.490Z,8.40
2019-01-15T11:33:53.522Z,8.23
2019-01-15T11:35:57.391Z,8.47
2019-01-15T11:38:01.255Z,8.60
2019-01-15T11:40:06.617Z,9.60
2019-01-15T11:42:10.739Z,8.43
2019-01-15T11:44:14.662Z,8.70
2019-01-15T11:46:18.550Z,8.70
2019-01-15T11:48:22.424Z,10.13
2019-01-15T11:50:26.366Z,9.50
2019-01-15T11:52:30.227Z,8.70
2019-01-15T11:54:34.006Z,8.97
2019-01-15T11:56:37.862Z,9.50
2019-01-15T11:58:41.814Z,10.10
2019-01-15T12:01:07.688Z,10.37
2019-01-15T12:03:39.886Z,9.63
2019-01-15T12:06:08.502Z,10.03
2019-01-15T12:08:34.699Z,9.00
2019-01-15T12:11:05.134Z,9.80
2019-01-15T12:13:18.178Z,9.83
2019-01-15T12:15:39.767Z,10.87
2019-01-15T12:18:02.795Z,7.70
2019-01-15T12:20:27.866Z,9.43
2019-01-15T12:22:45.260Z,10.60
2019-01-15T12:25:13.113Z,9.07
2019-01-15T12:27:48.321Z,11.50
2019-01-15T12:30:06.706Z,10.17
2019-01-15T12:32:28.318Z,11.67
2019-01-15T12:34:44.085Z,12.13
2019-01-15T12:36:56.336Z,11.83
2019-01-15T12:39:26.554Z,12.87
2019-01-15T12:41:40.311Z,11.27
2019-01-15T12:44:12.294Z,11.70
2019-01-15T12:46:44.030Z,11.50
2019-01-15T12:49:05.319Z,10.80
2019-01-15T12:51:26.918Z,10.97
2019-01-15T12:53:49.872Z,11.33
2019-01-15T12:56:02.233Z,12.60
2019-01-15T12:58:33.250Z,12.87
2019-01-15T13:01:02.086Z,11.27
2019-01-15T13:03:34.945Z,11.93
2019-01-15T13:06:16.050Z,11.80
2019-01-15T13:08:39.175Z,11.73
2019-01-15T13:11:11.534Z,11.50
2019-01-15T13:13:42.850Z,11.53
2019-01-15T13:16:04.459Z,10.97
2019-01-15T13:18:30.410Z,11.50
2019-01-15T13:20:45.102Z,12.20
2019-01-15T13:23:12.180Z,11.20
2019-01-15T13:25:49.964Z,10.83
2019-01-15T13:28:07.028Z,11.47
2019-01-15T13:30:31.603Z,12.00
2019-01-15T13:32:43.978Z,11.13
2019-01-15T13:35:05.855Z,10.53
2019-01-15T13:37:20.899Z,9.30
2019-01-15T13:39:53.034Z,9.57
2019-01-15T13:42:14.676Z,10.70
2019-01-15T13:44:36.457Z,10.67
2019-01-15T13:46:51.566Z,10.20
2019-01-15T13:49:13.020Z,10.00
2019-01-15T13:51:54.108Z,8.93
2019-01-15T13:54:19.234Z,9.30
2019-01-15T13:56:41.651Z,8.60
2019-01-15T13:59:03.018Z,9.50
2019-01-15T14:01:16.139Z,9.17
2019-01-15T14:03:30.706Z,7.97
2019-01-15T14:05:53.718Z,9.20
2019-01-15T14:08:23.775Z,8.37
2019-01-15T14:10:45.243Z,8.33
2019-01-15T14:13:08.251Z,9.37
2019-01-15T14:15:29.761Z,8.90
2019-01-15T14:18:00.286Z,7.60
2019-01-15T14:20:30.332Z,7.60
2019-01-15T14:23:00.541Z,8.30
2019-01-15T14:25:31.986Z,7.90
2019-01-15T14:27:53.459Z,8.27
2019-01-15T14:30:06.947Z,9.20
2019-01-15T14:32:35.548Z,8.60
2019-01-15T14:35:10.552Z,7.87
2019-01-15T14:37:36.522Z,7.40
2019-01-15T14:39:59.478Z,7.90
2019-01-15T14:42:22.598Z,7.33
2019-01-15T14:44:48.330Z,7.63
2019-01-15T14:47:17.109Z,7.30
2019-01-15T14:49:40.909Z,8.53
2019-01-15T14:52:09.757Z,7.70
2019-01-15T14:54:27.455Z,10.13
2019-01-15T14:56:41.719Z,8.27
2019-01-15T14:59:03.288Z,8.20
2019-01-15T15:01:20.800Z,8.80
2019-01-15T15:03:42.197Z,7.63
2019-01-15T15:06:08.151Z,7.30
2019-01-15T15:08:29.727Z,8.70
2019-01-15T15:10:40.579Z,8.57
2019-01-15T15:13:02.302Z,6.60
2019-01-15T15:15:24.442Z,7.70
2019-01-15T15:17:47.173Z,7.33
2019-01-15T15:20:07.694Z,7.03
2019-01-15T15:22:42.591Z,7.90
2019-01-15T15:25:14.387Z,7.80
2019-01-15T15:27:35.735Z,7.77
2019-01-15T15:29:57.422Z,7.47
2019-01-15T15:32:32.531Z,7.77
2019-01-15T15:35:01.838Z,8.40
2019-01-15T15:37:35.106Z,9.10
2019-01-15T15:39:57.347Z,8.80
2019-01-15T15:42:18.787Z,9.90
2019-01-15T15:44:42.342Z,7.73
2019-01-15T15:47:08.172Z,9.90
2019-01-15T15:49:31.454Z,9.97
2019-01-15T15:51:47.986Z,8.67
2019-01-15T15:54:19.698Z,10.07
2019-01-15T15:56:36.404Z,8.87
2019-01-15T15:58:59.282Z,10.10
2019-01-15T16:01:25.174Z,8.30
2019-01-15T16:03:44.531Z,8.10
2019-01-15T16:06:16.821Z,10.03
2019-01-15T16:08:51.779Z,8.73
2019-01-15T16:11:11.838Z,7.70
2019-01-15T16:13:35.051Z,7.20
2019-01-15T16:15:56.350Z,8.80
2019-01-15T16:18:22.353Z,8.47
2019-01-15T16:20:38.026Z,6.80
2019-01-15T16:22:55.242Z,7.90
2019-01-15T16:25:24.160Z,7.90
2019-01-15T16:27:56.367Z,8.77
2019-01-15T16:30:17.946Z,8.03
2019-01-15T16:32:50.018Z,9.80
2019-01-15T16:35:27.854Z,8.33
2019-01-15T16:37:39.495Z,7.90
2019-01-15T16:39:55.411Z,8.97
2019-01-15T16:42:13.107Z,8.40
2019-01-15T16:44:46.863Z,8.33
2019-01-15T16:47:08.257Z,8.87
2019-01-15T16:49:23.709Z,8.37
2019-01-15T16:51:46.829Z,7.80
2019-01-15T16:54:08.363Z,9.13
2019-01-15T16:56:29.990Z,8.83
2019-01-15T16:58:59.114Z,9.20
2019-01-15T17:01:20.539Z,10.37
2019-01-15T17:03:42.130Z,11.07
2019-01-15T17:06:03.791Z,9.77
2019-01-15T17:08:25.372Z,9.60
2019-01-15T17:10:54.242Z,10.23
2019-01-15T17:13:19.956Z,11.20
2019-01-15T17:15:39.730Z,12.30
2019-01-15T17:18:08.730Z,10.07
2019-01-15T17:20:40.651Z,9.27
2019-01-15T17:23:13.193Z,9.90
2019-01-15T17:25:42.404Z,8.97
2019-01-15T17:27:54.455Z,10.40
2019-01-15T17:30:11.551Z,10.67
2019-01-15T17:32:40.663Z,9.60
2019-01-15T17:35:03.914Z,9.17
2019-01-15T17:37:21.939Z,10.07
2019-01-15T17:39:44.908Z,9.03
2019-01-15T17:42:06.763Z,8.07
2019-01-15T17:44:32.843Z,9.13
2019-01-15T17:46:54.396Z,8.27
2019-01-15T17:49:20.371Z,8.10
2019-01-15T17:52:01.147Z,8.50
2019-01-15T17:54:27.059Z,9.50
2019-01-15T17:56:49.025Z,10.03
2019-01-15T17:59:10.475Z,9.50
2019-01-15T18:01:32.166Z,9.00
2019-01-15T18:03:53.487Z,9.17
2019-01-15T18:06:13.866Z,8.40
2019-01-15T18:08:42.822Z,7.57
2019-01-15T18:11:14.651Z,8.57
2019-01-15T18:13:40.791Z,8.70
2019-01-15T18:16:02.396Z,10.67
2019-01-15T18:18:29.022Z,10.80
2019-01-15T18:20:54.915Z,8.47
2019-01-15T18:23:15.605Z,9.00
2019-01-15T18:25:39.540Z,8.83
2019-01-15T18:28:00.035Z,8.77
2019-01-15T18:30:32.414Z,7.93
2019-01-15T18:32:50.100Z,9.40
2019-01-15T18:35:12.984Z,8.13
2019-01-15T18:37:34.681Z,7.77
2019-01-15T18:40:09.736Z,10.30
2019-01-15T18:42:32.997Z,9.43
2019-01-15T18:45:05.221Z,9.27
2019-01-15T18:47:37.175Z,9.30
2019-01-15T18:50:12.226Z,10.50
2019-01-15T18:52:33.572Z,10.00
2019-01-15T18:54:56.817Z,11.23
2019-01-15T18:57:15.347Z,10.27
2019-01-15T18:59:32.721Z,10.87
2019-01-15T19:01:46.851Z,10.50
2019-01-15T19:04:03.170Z,12.07
2019-01-15T19:06:35.259Z,14.27
2019-01-15T19:08:56.649Z,13.70
2019-01-15T19:11:19.598Z,14.67
2019-01-15T19:13:39.784Z,13.13
2019-01-15T19:16:02.798Z,12.57
2019-01-15T19:18:24.291Z,13.67
2019-01-15T19:20:38.375Z,14.37
2019-01-15T19:23:04.056Z,14.40
2019-01-15T19:25:33.090Z,14.03
2019-01-15T19:28:04.870Z,14.03
2019-01-15T19:30:48.467Z,16.50
2019-01-15T19:33:11.798Z,14.27
2019-01-15T19:35:38.595Z,16.10
2019-01-15T19:38:00.500Z,17.77
2019-01-15T19:40:29.756Z,18.63
2019-01-15T19:42:53.195Z,19.27
2019-01-15T19:45:15.118Z,18.20
2019-01-15T19:47:36.732Z,17.90
2019-01-15T19:49:58.534Z,16.57
2019-01-15T19:52:20.119Z,18.13
2019-01-15T19:55:01.210Z,19.63
2019-01-15T19:57:32.886Z,18.27
2019-01-15T19:59:52.231Z,19.30
2019-01-15T20:02:22.520Z,18.87
2019-01-15T20:04:45.745Z,19.87
2019-01-15T20:07:07.582Z,18.07
2019-01-15T20:09:24.279Z,19.13
2019-01-15T20:11:47.142Z,18.00
2019-01-15T20:14:54.423Z,19.70
2019-01-15T20:17:18.726Z,17.70
2019-01-15T20:19:51.978Z,19.50
2019-01-15T20:22:16.681Z,17.10
2019-01-15T20:24:39.618Z,20.03
2019-01-15T20:27:01.047Z,17.13
2019-01-15T20:29:27.296Z,18.00
2019-01-15T20:31:48.642Z,15.10
2019-01-15T20:34:26.903Z,16.57
2019-01-15T20:40:09.279Z,16.30
2019-01-15T20:42:41.289Z,16.00
2019-01-15T20:45:08.861Z,14.53
2019-01-15T20:50:44.992Z,14.30
2019-01-15T20:57:03.221Z,13.57
2019-01-15T21:12:52.511Z,14.10
2019-01-15T21:15:30.679Z,14.90
2019-01-15T21:17:52.167Z,13.93
2019-01-15T21:20:13.894Z,15.77
2019-01-15T21:22:36.874Z,13.47
2019-01-15T21:25:02.878Z,14.80
2019-01-15T21:27:16.106Z,14.70
2019-01-15T21:29:29.067Z,16.20
2019-01-15T21:31:50.771Z,15.53
2019-01-15T21:34:13.801Z,14.93
2019-01-15T21:36:35.148Z,13.83
2019-01-15T21:39:04.367Z,13.73
2019-01-15T21:41:42.755Z,13.80
2019-01-15T21:44:12.610Z,15.43
2019-01-15T21:46:35.175Z,12.57
2019-01-15T21:49:16.363Z,16.77
2019-01-15T21:51:37.743Z,13.50
2019-01-15T21:54:03.632Z,13.53
2019-01-15T21:56:26.901Z,14.33
2019-01-15T21:58:46.103Z,14.03
2019-01-15T22:01:07.447Z,13.30
2019-01-15T22:03:36.532Z,14.43
2019-01-15T22:05:49.347Z,15.57
2019-01-15T22:08:11.955Z,13.80
2019-01-15T22:10:33.126Z,14.57
2019-01-15T22:12:52.736Z,14.57
2019-01-15T22:15:09.618Z,14.07
2019-01-15T22:17:20.003Z,14.77
2019-01-15T22:19:58.054Z,16.67
2019-01-15T22:22:20.935Z,15.17
2019-01-15T22:24:37.242Z,14.77
2019-01-15T22:27:03.162Z,14.30
2019-01-15T22:29:30.216Z,12.97
2019-01-15T22:31:51.774Z,13.20
2019-01-15T22:34:17.763Z,12.80
2019-01-15T22:36:34.400Z,12.77
2019-01-15T22:38:51.525Z,13.27
2019-01-15T22:41:17.226Z,13.00
2019-01-15T22:43:37.451Z,13.83
2019-01-15T22:45:58.815Z,13.30
2019-01-15T22:48:36.968Z,13.13
2019-01-15T22:50:58.264Z,12.53
2019-01-15T22:53:19.875Z,12.70
2019-01-15T22:55:35.175Z,12.60
2019-01-15T22:57:50.659Z,13.07
2019-01-15T23:00:12.286Z,13.13
2019-01-15T23:02:38.327Z,12.83
2019-01-15T23:04:57.848Z,11.97
2019-01-15T23:07:33.780Z,14.00
2019-01-15T23:09:48.575Z,12.73
2019-01-15T23:12:10.218Z,12.50
2019-01-15T23:14:32.675Z,13.83
2019-01-15T23:16:58.411Z,12.70
2019-01-15T23:19:19.852Z,13.10
2019-01-15T23:21:38.213Z,10.90
2019-01-15T23:24:01.383Z,12.60
2019-01-15T23:26:30.425Z,11.20
2019-01-15T23:28:52.078Z,10.80
2019-01-15T23:31:09.878Z,10.97
2019-01-15T23:33:32.866Z,10.83
2019-01-15T23:35:50.330Z,11.60
2019-01-15T23:38:25.159Z,9.93
2019-01-15T23:41:03.038Z,10.37
2019-01-15T23:43:36.128Z,10.60
2019-01-15T23:45:57.498Z,9.70
2019-01-15T23:48:11.462Z,11.57
2019-01-15T23:50:33.598Z,11.97
2019-01-15T23:53:08.491Z,10.57
2019-01-15T23:55:26.034Z,11.13
2019-01-15T23:57:40.058Z,12.20
